Terminal Aerodrome Forecast
Issued by NWS Billings, MT

Home | Current Version | Previous Version | Text Only | Print | Product List | Glossary On
Versions: 1 2 3 4 5 6 7 8 9 10 11 12 13 14 15 16 17 18 19 20 21 22 23 24 25 26 27 28 29 30 31 32 33 34 35
000
FTUS45 KBYZ 061137
TAFBIL
TAF
KBIL 061137Z 0612/0712 VRB04KT P6SM OVC025
      TEMPO 0612/0616 OVC035
     FM061600 09005KT P6SM BKN045
     FM061900 10006KT P6SM FEW050=

USA.gov is the U.S. government's official web portal to all federal, state and local government web resources and services.